sensor_id;sensor_type;location;lat;lon;timestamp;temperature;humidity
1678;DHT22;6034;46.864;15.216;2022-10-19T05:02:33;12.70;99.90
1678;DHT22;6034;46.864;15.216;2022-10-19T05:05:00;12.70;99.90
1678;DHT22;6034;46.864;15.216;2022-10-19T05:07:27;13.10;99.90
1678;DHT22;6034;46.864;15.216;2022-10-19T05:09:55;13.30;99.90
1678;DHT22;6034;46.864;15.216;2022-10-19T05:12:22;13.20;99.90
1678;DHT22;6034;46.864;15.216;2022-10-19T05:14:49;13.30;99.90
1678;DHT22;6034;46.864;15.216;2022-10-19T05:17:16;13.30;99.90
1678;DHT22;6034;46.864;15.216;2022-10-19T05:19:44;13.50;99.90
1678;DHT22;6034;46.864;15.216;2022-10-19T05:22:11;13.50;99.90
1678;DHT22;6034;46.864;15.216;2022-10-19T05:24:38;13.20;99.90
1678;DHT22;6034;46.864;15.216;2022-10-19T05:27:05;13.30;99.90
1678;DHT22;6034;46.864;15.216;2022-10-19T05:29:32;13.30;99.90
1678;DHT22;6034;46.864;15.216;2022-10-19T05:31:59;13.30;99.90
1678;DHT22;6034;46.864;15.216;2022-10-19T05:34:26;13.20;99.90
1678;DHT22;6034;46.864;15.216;2022-10-19T05:36:55;13.20;99.90
1678;DHT22;6034;46.864;15.216;2022-10-19T05:39:22;13.30;99.90
1678;DHT22;6034;46.864;15.216;2022-10-19T05:41:49;13.40;99.90
1678;DHT22;6034;46.864;15.216;2022-10-19T05:44:16;13.50;99.90
1678;DHT22;6034;46.864;15.216;2022-10-19T05:46:44;13.50;99.90
1678;DHT22;6034;46.864;15.216;2022-10-19T05:49:11;13.40;99.90
1678;DHT22;6034;46.864;15.216;2022-10-19T05:51:38;13.40;99.90
1678;DHT22;6034;46.864;15.216;2022-10-19T05:54:06;13.40;99.90
1678;DHT22;6034;46.864;15.216;2022-10-19T05:56:34;13.40;99.90
1678;DHT22;6034;46.864;15.216;2022-10-19T05:59:01;13.40;99.90
1678;DHT22;6034;46.864;15.216;2022-10-19T06:01:29;13.60;99.90
1678;DHT22;6034;46.864;15.216;2022-10-19T06:03:56;13.60;99.90
1678;DHT22;6034;46.864;15.216;2022-10-19T06:06:24;13.60;99.90
1678;DHT22;6034;46.864;15.216;2022-10-19T06:08:52;13.70;99.90
1678;DHT22;6034;46.864;15.216;2022-10-19T06:11:20;13.80;99.90
1678;DHT22;6034;46.864;15.216;2022-10-19T06:13:48;13.80;99.90
1678;DHT22;6034;46.864;15.216;2022-10-19T06:16:16;13.70;99.90
1678;DHT22;6034;46.864;15.216;2022-10-19T06:18:44;13.70;99.90
1678;DHT22;6034;46.864;15.216;2022-10-19T06:21:11;13.70;99.90
1678;DHT22;6034;46.864;15.216;2022-10-19T06:23:39;13.70;99.90
1678;DHT22;6034;46.864;15.216;2022-10-19T06:26:07;13.70;99.90
1678;DHT22;6034;46.864;15.216;2022-10-19T06:28:36;13.70;99.90
1678;DHT22;6034;46.864;15.216;2022-10-19T06:31:03;13.70;99.90
1678;DHT22;6034;46.864;15.216;2022-10-19T06:33:30;13.70;99.90
1678;DHT22;6034;46.864;15.216;2022-10-19T06:36:03;13.70;99.90
1678;DHT22;6034;46.864;15.216;2022-10-19T06:38:30;13.80;99.90
1678;DHT22;6034;46.864;15.216;2022-10-19T06:40:57;13.70;99.90
1678;DHT22;6034;46.864;15.216;2022-10-19T06:43:24;13.50;99.90
1678;DHT22;6034;46.864;15.216;2022-10-19T06:45:52;13.80;99.90
1678;DHT22;6034;46.864;15.216;2022-10-19T06:48:19;14.00;99.90
1678;DHT22;6034;46.864;15.216;2022-10-19T06:50:46;14.00;99.90
1678;DHT22;6034;46.864;15.216;2022-10-19T06:53:21;14.10;99.90
1678;DHT22;6034;46.864;15.216;2022-10-19T06:55:47;14.20;99.90
1678;DHT22;6034;46.864;15.216;2022-10-19T06:58:14;14.30;99.90
1678;DHT22;6034;46.864;15.216;2022-10-19T07:00:41;14.60;99.90
1678;DHT22;6034;46.864;15.216;2022-10-19T07:03:09;14.60;99.90
1678;DHT22;6034;46.864;15.216;2022-10-19T07:05:37;14.70;99.90
1678;DHT22;6034;46.864;15.216;2022-10-19T07:08:04;14.70;99.90
1678;DHT22;6034;46.864;15.216;2022-10-19T07:10:30;14.90;99.90
1678;DHT22;6034;46.864;15.216;2022-10-19T07:12:57;15.10;99.90
1678;DHT22;6034;46.864;15.216;2022-10-19T07:15:24;15.10;99.90
1678;DHT22;6034;46.864;15.216;2022-10-19T07:17:51;15.20;99.90
1678;DHT22;6034;46.864;15.216;2022-10-19T07:20:19;15.30;99.90
1678;DHT22;6034;46.864;15.216;2022-10-19T07:22:46;15.30;99.90
1678;DHT22;6034;46.864;15.216;2022-10-19T07:25:13;15.40;99.90
1678;DHT22;6034;46.864;15.216;2022-10-19T07:27:40;15.50;99.90
1678;DHT22;6034;46.864;15.216;2022-10-19T07:30:07;15.30;99.90
1678;DHT22;6034;46.864;15.216;2022-10-19T07:32:34;15.30;99.90
1678;DHT22;6034;46.864;15.216;2022-10-19T07:35:01;15.20;99.90
1678;DHT22;6034;46.864;15.216;2022-10-19T07:37:29;15.20;99.90
1678;DHT22;6034;46.864;15.216;2022-10-19T07:39:56;15.20;99.90
1678;DHT22;6034;46.864;15.216;2022-10-19T07:42:23;15.20;99.90
1678;DHT22;6034;46.864;15.216;2022-10-19T07:44:50;15.20;99.90
1678;DHT22;6034;46.864;15.216;2022-10-19T07:47:17;15.10;99.90
1678;DHT22;6034;46.864;15.216;2022-10-19T07:49:44;15.00;99.90
1678;DHT22;6034;46.864;15.216;2022-10-19T07:52:10;15.30;99.90
1678;DHT22;6034;46.864;15.216;2022-10-19T07:54:39;15.30;99.90
1678;DHT22;6034;46.864;15.216;2022-10-19T07:57:06;15.40;99.90
1678;DHT22;6034;46.864;15.216;2022-10-19T07:59:33;15.50;99.90
1678;DHT22;6034;46.864;15.216;2022-10-19T08:02:00;15.60;99.90
1678;DHT22;6034;46.864;15.216;2022-10-19T08:04:29;15.90;99.90
1678;DHT22;6034;46.864;15.216;2022-10-19T08:06:56;15.80;99.90
1678;DHT22;6034;46.864;15.216;2022-10-19T08:09:23;16.00;99.90
1678;DHT22;6034;46.864;15.216;2022-10-19T08:11:51;16.10;99.90
1678;DHT22;6034;46.864;15.216;2022-10-19T08:14:18;16.20;99.90
1678;DHT22;6034;46.864;15.216;2022-10-19T08:16:45;16.20;99.90
1678;DHT22;6034;46.864;15.216;2022-10-19T08:19:12;16.40;99.90
1678;DHT22;6034;46.864;15.216;2022-10-19T08:21:41;16.40;99.90
1678;DHT22;6034;46.864;15.216;2022-10-19T08:24:08;16.50;99.90
1678;DHT22;6034;46.864;15.216;2022-10-19T08:26:36;16.50;99.90
1678;DHT22;6034;46.864;15.216;2022-10-19T08:29:06;16.50;99.90
1678;DHT22;6034;46.864;15.216;2022-10-19T08:31:34;16.50;99.90
1678;DHT22;6034;46.864;15.216;2022-10-19T08:34:01;16.50;99.90
1678;DHT22;6034;46.864;15.216;2022-10-19T08:36:28;16.50;99.90
1678;DHT22;6034;46.864;15.216;2022-10-19T08:38:57;16.60;99.90
1678;DHT22;6034;46.864;15.216;2022-10-19T08:41:26;16.50;99.90
1678;DHT22;6034;46.864;15.216;2022-10-19T08:46:47;16.50;99.90
1678;DHT22;6034;46.864;15.216;2022-10-19T08:49:18;16.50;99.90
1678;DHT22;6034;46.864;15.216;2022-10-19T08:51:46;16.60;99.90
1678;DHT22;6034;46.864;15.216;2022-10-19T08:54:15;16.60;99.90
1678;DHT22;6034;46.864;15.216;2022-10-19T08:56:45;16.60;99.90
1678;DHT22;6034;46.864;15.216;2022-10-19T08:59:17;16.60;99.90
1678;DHT22;6034;46.864;15.216;2022-10-19T09:01:51;16.70;99.90
1678;DHT22;6034;46.864;15.216;2022-10-19T09:04:20;16.60;99.90
1678;DHT22;6034;46.864;15.216;2022-10-19T09:06:54;16.70;99.90
1678;DHT22;6034;46.864;15.216;2022-10-19T09:09:23;16.70;99.90
1678;DHT22;6034;46.864;15.216;2022-10-19T09:11:51;16.80;99.90
1678;DHT22;6034;46.864;15.216;2022-10-19T09:14:22;17.20;99.90
1678;DHT22;6034;46.864;15.216;2022-10-19T09:16:52;17.50;99.90
1678;DHT22;6034;46.864;15.216;2022-10-19T09:19:21;17.50;99.90
1678;DHT22;6034;46.864;15.216;2022-10-19T09:21:50;17.40;99.90
1678;DHT22;6034;46.864;15.216;2022-10-19T09:24:31;17.70;99.90
1678;DHT22;6034;46.864;15.216;2022-10-19T09:26:59;17.90;99.90
1678;DHT22;6034;46.864;15.216;2022-10-19T09:29:29;17.90;99.90
1678;DHT22;6034;46.864;15.216;2022-10-19T09:31:59;18.00;99.90
1678;DHT22;6034;46.864;15.216;2022-10-19T09:34:29;18.00;99.90
1678;DHT22;6034;46.864;15.216;2022-10-19T09:36:58;18.10;99.90
1678;DHT22;6034;46.864;15.216;2022-10-19T09:39:25;18.20;99.90
1678;DHT22;6034;46.864;15.216;2022-10-19T09:41:53;18.30;99.90
1678;DHT22;6034;46.864;15.216;2022-10-19T09:44:20;18.40;99.90
1678;DHT22;6034;46.864;15.216;2022-10-19T09:46:48;18.30;99.90
1678;DHT22;6034;46.864;15.216;2022-10-19T09:49:19;18.30;99.90
1678;DHT22;6034;46.864;15.216;2022-10-19T09:52:03;18.50;99.90
1678;DHT22;6034;46.864;15.216;2022-10-19T09:54:32;18.30;99.90
1678;DHT22;6034;46.864;15.216;2022-10-19T09:57:00;18.50;99.90
1678;DHT22;6034;46.864;15.216;2022-10-19T09:59:28;18.50;99.90
1678;DHT22;6034;46.864;15.216;2022-10-19T10:02:03;18.30;99.90
1678;DHT22;6034;46.864;15.216;2022-10-19T10:04:31;18.10;99.90
1678;DHT22;6034;46.864;15.216;2022-10-19T10:07:00;18.00;99.90
1678;DHT22;6034;46.864;15.216;2022-10-19T10:09:29;17.90;99.90
1678;DHT22;6034;46.864;15.216;2022-10-19T10:11:56;18.10;99.90
1678;DHT22;6034;46.864;15.216;2022-10-19T10:14:26;18.10;99.90
1678;DHT22;6034;46.864;15.216;2022-10-19T10:16:54;17.70;99.90
1678;DHT22;6034;46.864;15.216;2022-10-19T10:19:21;17.90;99.90
1678;DHT22;6034;46.864;15.216;2022-10-19T10:21:54;17.90;99.90
1678;DHT22;6034;46.864;15.216;2022-10-19T10:24:23;18.10;99.90
1678;DHT22;6034;46.864;15.216;2022-10-19T10:26:51;17.90;99.90
1678;DHT22;6034;46.864;15.216;2022-10-19T10:29:19;18.00;99.90
1678;DHT22;6034;46.864;15.216;2022-10-19T10:31:46;18.00;99.90
1678;DHT22;6034;46.864;15.216;2022-10-19T10:34:16;18.00;99.90
1678;DHT22;6034;46.864;15.216;2022-10-19T10:36:44;18.10;99.90
1678;DHT22;6034;46.864;15.216;2022-10-19T10:39:15;18.10;99.90
1678;DHT22;6034;46.864;15.216;2022-10-19T10:41:43;18.20;99.90
1678;DHT22;6034;46.864;15.216;2022-10-19T10:44:15;18.10;99.90
1678;DHT22;6034;46.864;15.216;2022-10-19T10:46:50;18.10;99.90
1678;DHT22;6034;46.864;15.216;2022-10-19T10:49:20;18.10;99.90
1678;DHT22;6034;46.864;15.216;2022-10-19T10:51:49;18.20;99.90
1678;DHT22;6034;46.864;15.216;2022-10-19T10:54:19;18.20;99.90
1678;DHT22;6034;46.864;15.216;2022-10-19T10:57:02;18.20;99.90
1678;DHT22;6034;46.864;15.216;2022-10-19T10:59:32;18.20;99.90
1678;DHT22;6034;46.864;15.216;2022-10-19T11:02:02;18.30;99.90
1678;DHT22;6034;46.864;15.216;2022-10-19T11:04:31;18.20;99.90
1678;DHT22;6034;46.864;15.216;2022-10-19T11:07:00;17.50;99.90
1678;DHT22;6034;46.864;15.216;2022-10-19T11:09:30;18.20;99.90
1678;DHT22;6034;46.864;15.216;2022-10-19T11:12:01;18.20;99.90
1678;DHT22;6034;46.864;15.216;2022-10-19T11:14:30;18.20;99.90
1678;DHT22;6034;46.864;15.216;2022-10-19T11:16:59;18.30;99.90
1678;DHT22;6034;46.864;15.216;2022-10-19T11:19:30;18.30;99.90
1678;DHT22;6034;46.864;15.216;2022-10-19T11:22:00;18.20;99.90
1678;DHT22;6034;46.864;15.216;2022-10-19T11:24:33;18.30;99.90
1678;DHT22;6034;46.864;15.216;2022-10-19T11:27:04;18.40;99.90
1678;DHT22;6034;46.864;15.216;2022-10-19T11:29:37;18.50;99.90
1678;DHT22;6034;46.864;15.216;2022-10-19T11:32:09;18.60;99.90
1678;DHT22;6034;46.864;15.216;2022-10-19T11:34:45;18.80;99.90
1678;DHT22;6034;46.864;15.216;2022-10-19T11:37:18;18.80;99.90
1678;DHT22;6034;46.864;15.216;2022-10-19T11:39:50;18.70;99.90
1678;DHT22;6034;46.864;15.216;2022-10-19T11:42:25;18.80;99.90
1678;DHT22;6034;46.864;15.216;2022-10-19T11:44:58;18.80;99.90
1678;DHT22;6034;46.864;15.216;2022-10-19T11:47:41;18.90;99.90
1678;DHT22;6034;46.864;15.216;2022-10-19T11:50:21;19.00;99.90
1678;DHT22;6034;46.864;15.216;2022-10-19T11:52:50;19.00;99.90
1678;DHT22;6034;46.864;15.216;2022-10-19T11:55:24;18.90;99.90
1678;DHT22;6034;46.864;15.216;2022-10-19T11:57:54;18.80;99.90
1678;DHT22;6034;46.864;15.216;2022-10-19T12:00:25;18.80;99.90
1678;DHT22;6034;46.864;15.216;2022-10-19T12:03:08;18.80;99.90
1678;DHT22;6034;46.864;15.216;2022-10-19T12:05:43;18.90;99.90
1678;DHT22;6034;46.864;15.216;2022-10-19T12:08:20;18.90;99.90
1678;DHT22;6034;46.864;15.216;2022-10-19T12:10:54;19.00;99.90
1678;DHT22;6034;46.864;15.216;2022-10-19T12:13:24;19.10;99.90
1678;DHT22;6034;46.864;15.216;2022-10-19T12:15:53;19.00;99.90
1678;DHT22;6034;46.864;15.216;2022-10-19T12:18:22;19.20;99.90
1678;DHT22;6034;46.864;15.216;2022-10-19T12:20:50;19.20;99.90
1678;DHT22;6034;46.864;15.216;2022-10-19T12:23:23;19.20;99.90
1678;DHT22;6034;46.864;15.216;2022-10-19T12:25:55;19.20;99.90
1678;DHT22;6034;46.864;15.216;2022-10-19T12:28:26;18.70;99.90
1678;DHT22;6034;46.864;15.216;2022-10-19T12:30:53;19.00;99.90
1678;DHT22;6034;46.864;15.216;2022-10-19T12:33:22;19.00;99.90
1678;DHT22;6034;46.864;15.216;2022-10-19T12:36:02;19.10;99.90
1678;DHT22;6034;46.864;15.216;2022-10-19T12:38:34;19.10;99.90
1678;DHT22;6034;46.864;15.216;2022-10-19T12:41:09;19.20;99.90
1678;DHT22;6034;46.864;15.216;2022-10-19T12:43:37;19.20;99.90
1678;DHT22;6034;46.864;15.216;2022-10-19T12:46:09;19.20;99.90
1678;DHT22;6034;46.864;15.216;2022-10-19T12:48:40;19.00;99.90
1678;DHT22;6034;46.864;15.216;2022-10-19T12:51:09;19.00;99.90
1678;DHT22;6034;46.864;15.216;2022-10-19T12:53:38;18.90;99.90
1678;DHT22;6034;46.864;15.216;2022-10-19T12:56:09;19.00;99.90
1678;DHT22;6034;46.864;15.216;2022-10-19T12:58:38;19.00;99.90
1678;DHT22;6034;46.864;15.216;2022-10-19T13:01:13;19.00;99.90
1678;DHT22;6034;46.864;15.216;2022-10-19T13:03:41;18.90;99.90
1678;DHT22;6034;46.864;15.216;2022-10-19T13:06:10;19.00;99.90
1678;DHT22;6034;46.864;15.216;2022-10-19T13:08:40;19.00;99.90
1678;DHT22;6034;46.864;15.216;2022-10-19T13:11:09;18.90;99.90
1678;DHT22;6034;46.864;15.216;2022-10-19T13:13:55;19.00;99.90
1678;DHT22;6034;46.864;15.216;2022-10-19T13:19:18;19.20;99.90
1678;DHT22;6034;46.864;15.216;2022-10-19T13:21:46;19.10;99.90
1678;DHT22;6034;46.864;15.216;2022-10-19T13:27:26;19.20;99.90
1678;DHT22;6034;46.864;15.216;2022-10-19T13:29:53;19.20;99.90
1678;DHT22;6034;46.864;15.216;2022-10-19T13:32:37;19.10;99.90
1678;DHT22;6034;46.864;15.216;2022-10-19T13:35:22;19.00;99.90
1678;DHT22;6034;46.864;15.216;2022-10-19T13:40:31;19.10;99.90
1678;DHT22;6034;46.864;15.216;2022-10-19T13:42:59;19.10;99.90
1678;DHT22;6034;46.864;15.216;2022-10-19T13:45:26;19.10;99.90
1678;DHT22;6034;46.864;15.216;2022-10-19T13:47:53;19.00;99.90
1678;DHT22;6034;46.864;15.216;2022-10-19T13:50:25;19.00;99.90
1678;DHT22;6034;46.864;15.216;2022-10-19T13:55:46;19.00;99.90
1678;DHT22;6034;46.864;15.216;2022-10-19T14:01:18;19.10;99.90
1678;DHT22;6034;46.864;15.216;2022-10-19T14:03:54;19.10;99.90
1678;DHT22;6034;46.864;15.216;2022-10-19T14:06:24;19.20;99.90
1678;DHT22;6034;46.864;15.216;2022-10-19T14:11:41;19.10;99.90
1678;DHT22;6034;46.864;15.216;2022-10-19T14:14:13;19.20;99.90
1678;DHT22;6034;46.864;15.216;2022-10-19T14:16:49;19.20;99.90
1678;DHT22;6034;46.864;15.216;2022-10-19T14:19:20;19.10;99.90
1678;DHT22;6034;46.864;15.216;2022-10-19T14:21:51;19.00;99.90
1678;DHT22;6034;46.864;15.216;2022-10-19T14:24:19;19.00;99.90
1678;DHT22;6034;46.864;15.216;2022-10-19T14:26:46;19.00;99.90
1678;DHT22;6034;46.864;15.216;2022-10-19T14:29:13;19.00;99.90
1678;DHT22;6034;46.864;15.216;2022-10-19T14:31:40;19.00;99.90
1678;DHT22;6034;46.864;15.216;2022-10-19T14:34:08;19.10;99.90
1678;DHT22;6034;46.864;15.216;2022-10-19T14:36:36;19.10;99.90
1678;DHT22;6034;46.864;15.216;2022-10-19T14:39:03;19.10;99.90
1678;DHT22;6034;46.864;15.216;2022-10-19T14:41:32;19.00;99.90
1678;DHT22;6034;46.864;15.216;2022-10-19T14:44:00;19.00;99.90
1678;DHT22;6034;46.864;15.216;2022-10-19T14:46:28;19.00;99.90
1678;DHT22;6034;46.864;15.216;2022-10-19T14:48:58;19.00;99.90
1678;DHT22;6034;46.864;15.216;2022-10-19T14:51:31;19.00;99.90
1678;DHT22;6034;46.864;15.216;2022-10-19T14:54:00;19.00;99.90
1678;DHT22;6034;46.864;15.216;2022-10-19T14:56:30;19.00;99.90
1678;DHT22;6034;46.864;15.216;2022-10-19T14:58:59;18.90;99.90
1678;DHT22;6034;46.864;15.216;2022-10-19T15:01:27;18.90;99.90
1678;DHT22;6034;46.864;15.216;2022-10-19T15:03:54;18.90;99.90
1678;DHT22;6034;46.864;15.216;2022-10-19T15:06:22;17.30;99.90
1678;DHT22;6034;46.864;15.216;2022-10-19T15:08:52;18.80;99.90
1678;DHT22;6034;46.864;15.216;2022-10-19T15:11:22;18.80;99.90
1678;DHT22;6034;46.864;15.216;2022-10-19T15:13:54;18.70;99.90
1678;DHT22;6034;46.864;15.216;2022-10-19T15:16:32;18.70;99.90
1678;DHT22;6034;46.864;15.216;2022-10-19T15:19:03;18.70;99.90
1678;DHT22;6034;46.864;15.216;2022-10-19T15:21:31;18.50;99.90
1678;DHT22;6034;46.864;15.216;2022-10-19T15:24:06;18.50;99.90
1678;DHT22;6034;46.864;15.216;2022-10-19T15:26:33;18.20;99.90
1678;DHT22;6034;46.864;15.216;2022-10-19T15:29:08;18.40;99.90
1678;DHT22;6034;46.864;15.216;2022-10-19T15:31:37;18.50;99.90
1678;DHT22;6034;46.864;15.216;2022-10-19T15:34:04;18.50;99.90
1678;DHT22;6034;46.864;15.216;2022-10-19T15:36:31;18.40;99.90
1678;DHT22;6034;46.864;15.216;2022-10-19T15:38:59;18.40;99.90
1678;DHT22;6034;46.864;15.216;2022-10-19T15:41:28;18.40;99.90
1678;DHT22;6034;46.864;15.216;2022-10-19T15:43:55;18.40;99.90
1678;DHT22;6034;46.864;15.216;2022-10-19T15:46:33;18.40;99.90
1678;DHT22;6034;46.864;15.216;2022-10-19T15:49:01;18.30;99.90
1678;DHT22;6034;46.864;15.216;2022-10-19T15:51:36;18.30;99.90
1678;DHT22;6034;46.864;15.216;2022-10-19T15:54:06;18.20;99.90
1678;DHT22;6034;46.864;15.216;2022-10-19T15:56:36;18.20;99.90
1678;DHT22;6034;46.864;15.216;2022-10-19T15:59:03;18.20;99.90
1678;DHT22;6034;46.864;15.216;2022-10-19T16:01:31;18.20;99.90
1678;DHT22;6034;46.864;15.216;2022-10-19T16:03:58;18.00;99.90
1678;DHT22;6034;46.864;15.216;2022-10-19T16:06:26;18.00;99.90
1678;DHT22;6034;46.864;15.216;2022-10-19T16:08:54;17.90;99.90
1678;DHT22;6034;46.864;15.216;2022-10-19T16:11:23;17.60;99.90
1678;DHT22;6034;46.864;15.216;2022-10-19T16:13:51;17.70;99.90
1678;DHT22;6034;46.864;15.216;2022-10-19T16:16:19;17.80;99.90
1678;DHT22;6034;46.864;15.216;2022-10-19T16:18:47;17.50;99.90
1678;DHT22;6034;46.864;15.216;2022-10-19T16:21:14;17.50;99.90
1678;DHT22;6034;46.864;15.216;2022-10-19T16:23:41;17.50;99.90
1678;DHT22;6034;46.864;15.216;2022-10-19T16:26:08;17.70;99.90
1678;DHT22;6034;46.864;15.216;2022-10-19T16:28:35;17.80;99.90
1678;DHT22;6034;46.864;15.216;2022-10-19T16:31:03;17.60;99.90
1678;DHT22;6034;46.864;15.216;2022-10-19T16:33:32;17.60;99.90
1678;DHT22;6034;46.864;15.216;2022-10-19T16:36:02;17.60;99.90
1678;DHT22;6034;46.864;15.216;2022-10-19T16:38:29;17.60;99.90
1678;DHT22;6034;46.864;15.216;2022-10-19T16:40:58;17.60;99.90
1678;DHT22;6034;46.864;15.216;2022-10-19T16:43:25;17.60;99.90
1678;DHT22;6034;46.864;15.216;2022-10-19T16:45:52;17.60;99.90
1678;DHT22;6034;46.864;15.216;2022-10-19T16:48:20;17.50;99.90
1678;DHT22;6034;46.864;15.216;2022-10-19T16:50:50;18.40;99.90
1678;DHT22;6034;46.864;15.216;2022-10-19T16:53:37;17.40;99.90
1678;DHT22;6034;46.864;15.216;2022-10-19T16:56:05;17.40;99.90
1678;DHT22;6034;46.864;15.216;2022-10-19T16:58:32;17.40;99.90
1678;DHT22;6034;46.864;15.216;2022-10-19T17:01:04;17.40;99.90
1678;DHT22;6034;46.864;15.216;2022-10-19T17:03:33;17.30;99.90
1678;DHT22;6034;46.864;15.216;2022-10-19T17:06:01;17.30;99.90
1678;DHT22;6034;46.864;15.216;2022-10-19T17:08:28;17.40;99.90
1678;DHT22;6034;46.864;15.216;2022-10-19T17:10:55;17.30;99.90
1678;DHT22;6034;46.864;15.216;2022-10-19T17:13:22;17.20;99.90
1678;DHT22;6034;46.864;15.216;2022-10-19T17:15:49;17.10;99.90
1678;DHT22;6034;46.864;15.216;2022-10-19T17:18:16;17.10;99.90
1678;DHT22;6034;46.864;15.216;2022-10-19T17:20:44;17.10;99.90
1678;DHT22;6034;46.864;15.216;2022-10-19T17:23:12;17.10;99.90
1678;DHT22;6034;46.864;15.216;2022-10-19T17:25:45;17.10;99.90
1678;DHT22;6034;46.864;15.216;2022-10-19T17:28:13;17.10;99.90
1678;DHT22;6034;46.864;15.216;2022-10-19T17:30:40;17.20;99.90
1678;DHT22;6034;46.864;15.216;2022-10-19T17:33:08;17.10;99.90
1678;DHT22;6034;46.864;15.216;2022-10-19T17:35:35;17.10;99.90
1678;DHT22;6034;46.864;15.216;2022-10-19T17:38:03;17.10;99.90
1678;DHT22;6034;46.864;15.216;2022-10-19T17:40:30;17.00;99.90
1678;DHT22;6034;46.864;15.216;2022-10-19T17:42:58;16.90;99.90
1678;DHT22;6034;46.864;15.216;2022-10-19T17:45:25;17.00;99.90
1678;DHT22;6034;46.864;15.216;2022-10-19T17:47:52;17.00;99.90
1678;DHT22;6034;46.864;15.216;2022-10-19T17:50:19;16.90;99.90
1678;DHT22;6034;46.864;15.216;2022-10-19T17:52:46;16.90;99.90
1678;DHT22;6034;46.864;15.216;2022-10-19T17:55:15;16.80;99.90
1678;DHT22;6034;46.864;15.216;2022-10-19T17:57:42;16.80;99.90
1678;DHT22;6034;46.864;15.216;2022-10-19T18:00:10;16.80;99.90
1678;DHT22;6034;46.864;15.216;2022-10-19T18:02:37;16.70;99.90
1678;DHT22;6034;46.864;15.216;2022-10-19T18:05:05;16.60;99.90
1678;DHT22;6034;46.864;15.216;2022-10-19T18:07:32;16.70;99.90
1678;DHT22;6034;46.864;15.216;2022-10-19T18:09:59;16.50;99.90
1678;DHT22;6034;46.864;15.216;2022-10-19T18:12:28;16.50;99.90
1678;DHT22;6034;46.864;15.216;2022-10-19T18:14:54;16.50;99.90
1678;DHT22;6034;46.864;15.216;2022-10-19T18:17:21;16.50;99.90
1678;DHT22;6034;46.864;15.216;2022-10-19T18:19:49;16.40;99.90
1678;DHT22;6034;46.864;15.216;2022-10-19T18:22:16;16.30;99.90
1678;DHT22;6034;46.864;15.216;2022-10-19T18:24:46;16.20;99.90
1678;DHT22;6034;46.864;15.216;2022-10-19T18:27:14;16.30;99.90
1678;DHT22;6034;46.864;15.216;2022-10-19T18:29:44;16.30;99.90
1678;DHT22;6034;46.864;15.216;2022-10-19T18:32:13;16.20;99.90
1678;DHT22;6034;46.864;15.216;2022-10-19T18:34:43;16.20;99.90
1678;DHT22;6034;46.864;15.216;2022-10-19T18:37:10;16.10;99.90
1678;DHT22;6034;46.864;15.216;2022-10-19T18:39:39;16.10;99.90
1678;DHT22;6034;46.864;15.216;2022-10-19T18:42:08;16.00;99.90
1678;DHT22;6034;46.864;15.216;2022-10-19T18:44:37;16.00;99.90
1678;DHT22;6034;46.864;15.216;2022-10-19T18:47:05;16.00;99.90
1678;DHT22;6034;46.864;15.216;2022-10-19T18:49:33;16.00;99.90
1678;DHT22;6034;46.864;15.216;2022-10-19T18:52:03;16.00;99.90
1678;DHT22;6034;46.864;15.216;2022-10-19T18:54:31;16.10;99.90
1678;DHT22;6034;46.864;15.216;2022-10-19T18:56:58;16.00;99.90
1678;DHT22;6034;46.864;15.216;2022-10-19T18:59:25;16.00;99.90
1678;DHT22;6034;46.864;15.216;2022-10-19T19:01:53;16.10;99.90
1678;DHT22;6034;46.864;15.216;2022-10-19T19:04:22;16.10;99.90
1678;DHT22;6034;46.864;15.216;2022-10-19T19:06:51;16.20;99.90
1678;DHT22;6034;46.864;15.216;2022-10-19T19:09:20;16.10;99.90
1678;DHT22;6034;46.864;15.216;2022-10-19T19:11:48;16.10;99.90
1678;DHT22;6034;46.864;15.216;2022-10-19T19:14:16;16.10;99.90
1678;DHT22;6034;46.864;15.216;2022-10-19T19:16:45;16.10;99.90
1678;DHT22;6034;46.864;15.216;2022-10-19T19:19:12;16.00;99.90
1678;DHT22;6034;46.864;15.216;2022-10-19T19:21:41;15.90;99.90
1678;DHT22;6034;46.864;15.216;2022-10-19T19:24:09;16.00;99.90
1678;DHT22;6034;46.864;15.216;2022-10-19T19:26:37;16.10;99.90
1678;DHT22;6034;46.864;15.216;2022-10-19T19:29:06;16.10;99.90
1678;DHT22;6034;46.864;15.216;2022-10-19T19:31:33;15.80;99.90
1678;DHT22;6034;46.864;15.216;2022-10-19T19:34:01;15.80;99.90
1678;DHT22;6034;46.864;15.216;2022-10-19T19:36:30;15.80;99.90
1678;DHT22;6034;46.864;15.216;2022-10-19T19:38:58;15.60;99.90
1678;DHT22;6034;46.864;15.216;2022-10-19T19:41:26;15.80;99.90
1678;DHT22;6034;46.864;15.216;2022-10-19T19:43:55;15.80;99.90
1678;DHT22;6034;46.864;15.216;2022-10-19T19:46:23;15.80;99.90
1678;DHT22;6034;46.864;15.216;2022-10-19T19:48:55;15.80;99.90
1678;DHT22;6034;46.864;15.216;2022-10-19T19:51:22;15.80;99.90
1678;DHT22;6034;46.864;15.216;2022-10-19T19:53:50;15.80;99.90
1678;DHT22;6034;46.864;15.216;2022-10-19T19:56:18;15.80;99.90
1678;DHT22;6034;46.864;15.216;2022-10-19T19:58:46;15.80;99.90
1678;DHT22;6034;46.864;15.216;2022-10-19T20:01:14;15.80;99.90
1678;DHT22;6034;46.864;15.216;2022-10-19T20:03:42;15.80;99.90
1678;DHT22;6034;46.864;15.216;2022-10-19T20:06:09;15.70;99.90
1678;DHT22;6034;46.864;15.216;2022-10-19T20:08:36;15.60;99.90
1678;DHT22;6034;46.864;15.216;2022-10-19T20:11:05;15.70;99.90
1678;DHT22;6034;46.864;15.216;2022-10-19T20:13:34;15.70;99.90
1678;DHT22;6034;46.864;15.216;2022-10-19T20:16:05;15.70;99.90
1678;DHT22;6034;46.864;15.216;2022-10-19T20:18:32;15.60;99.90
1678;DHT22;6034;46.864;15.216;2022-10-19T20:20:59;15.60;99.90
1678;DHT22;6034;46.864;15.216;2022-10-19T20:23:26;15.50;99.90
1678;DHT22;6034;46.864;15.216;2022-10-19T20:25:54;15.50;99.90
1678;DHT22;6034;46.864;15.216;2022-10-19T20:28:22;15.50;99.90
1678;DHT22;6034;46.864;15.216;2022-10-19T20:30:59;15.50;99.90
1678;DHT22;6034;46.864;15.216;2022-10-19T20:33:27;15.60;99.90
1678;DHT22;6034;46.864;15.216;2022-10-19T20:35:54;15.50;99.90
1678;DHT22;6034;46.864;15.216;2022-10-19T20:38:21;15.60;99.90
1678;DHT22;6034;46.864;15.216;2022-10-19T20:40:49;15.60;99.90
1678;DHT22;6034;46.864;15.216;2022-10-19T20:43:16;15.50;99.90
1678;DHT22;6034;46.864;15.216;2022-10-19T20:45:43;15.50;99.90
1678;DHT22;6034;46.864;15.216;2022-10-19T20:48:11;15.40;99.90
1678;DHT22;6034;46.864;15.216;2022-10-19T20:50:38;15.20;99.90
1678;DHT22;6034;46.864;15.216;2022-10-19T20:53:05;15.30;99.90
1678;DHT22;6034;46.864;15.216;2022-10-19T20:55:33;15.30;99.90
1678;DHT22;6034;46.864;15.216;2022-10-19T20:58:00;15.40;99.90
